sensor_id;sensor_type;location;lat;lon;timestamp;pressure;altitude;pressure_sealevel;temperature;humidity
48846;BME280;34665;51.886;5.436;2023-04-07T00:00:11;101296.75;;;13.42;100.00
48846;BME280;34665;51.886;5.436;2023-04-07T00:02:37;101303.31;;;13.19;100.00
48846;BME280;34665;51.886;5.436;2023-04-07T00:05:02;101303.69;;;13.09;100.00
48846;BME280;34665;51.886;5.436;2023-04-07T00:07:27;101301.47;;;13.26;100.00
48846;BME280;34665;51.886;5.436;2023-04-07T00:09:53;101301.06;;;13.36;100.00
48846;BME280;34665;51.886;5.436;2023-04-07T00:12:18;101299.16;;;13.16;100.00
48846;BME280;34665;51.886;5.436;2023-04-07T00:14:44;101307.78;;;12.98;100.00
48846;BME280;34665;51.886;5.436;2023-04-07T00:17:09;101313.19;;;13.12;100.00
48846;BME280;34665;51.886;5.436;2023-04-07T00:19:35;101305.75;;;13.14;100.00
48846;BME280;34665;51.886;5.436;2023-04-07T00:22:00;101303.97;;;13.28;100.00
48846;BME280;34665;51.886;5.436;2023-04-07T00:24:26;101293.53;;;13.04;100.00
48846;BME280;34665;51.886;5.436;2023-04-07T00:26:51;101301.13;;;12.87;100.00
48846;BME280;34665;51.886;5.436;2023-04-07T00:29:17;101303.91;;;13.14;100.00
48846;BME280;34665;51.886;5.436;2023-04-07T00:31:42;101299.19;;;13.23;100.00
48846;BME280;34665;51.886;5.436;2023-04-07T00:34:08;101297.47;;;13.09;100.00
48846;BME280;34665;51.886;5.436;2023-04-07T00:36:33;101302.31;;;12.85;100.00
48846;BME280;34665;51.886;5.436;2023-04-07T00:38:59;101296.94;;;13.33;100.00
48846;BME280;34665;51.886;5.436;2023-04-07T00:41:24;101301.75;;;13.45;100.00
48846;BME280;34665;51.886;5.436;2023-04-07T00:43:50;101294.22;;;13.20;100.00
48846;BME280;34665;51.886;5.436;2023-04-07T00:46:16;101294.00;;;13.15;100.00
48846;BME280;34665;51.886;5.436;2023-04-07T00:48:42;101291.28;;;13.08;100.00
48846;BME280;34665;51.886;5.436;2023-04-07T00:51:07;101302.41;;;12.98;100.00
48846;BME280;34665;51.886;5.436;2023-04-07T00:53:32;101296.41;;;13.03;100.00
48846;BME280;34665;51.886;5.436;2023-04-07T00:55:58;101290.28;;;13.16;100.00
48846;BME280;34665;51.886;5.436;2023-04-07T00:58:23;101290.16;;;13.44;100.00
48846;BME280;34665;51.886;5.436;2023-04-07T01:00:50;101297.13;;;13.25;100.00
48846;BME280;34665;51.886;5.436;2023-04-07T01:06:04;101296.09;;;13.26;100.00
48846;BME280;34665;51.886;5.436;2023-04-07T01:11:05;101296.16;;;12.84;100.00
48846;BME280;34665;51.886;5.436;2023-04-07T01:13:47;101293.56;;;13.11;100.00
48846;BME280;34665;51.886;5.436;2023-04-07T01:16:54;101292.69;;;12.97;100.00
48846;BME280;34665;51.886;5.436;2023-04-07T01:19:15;101295.31;;;12.84;100.00
48846;BME280;34665;51.886;5.436;2023-04-07T01:21:46;101291.63;;;12.91;100.00
48846;BME280;34665;51.886;5.436;2023-04-07T01:24:26;101295.78;;;12.94;100.00
48846;BME280;34665;51.886;5.436;2023-04-07T01:26:59;101294.59;;;12.61;100.00
48846;BME280;34665;51.886;5.436;2023-04-07T01:29:39;101295.63;;;12.67;100.00
48846;BME280;34665;51.886;5.436;2023-04-07T01:32:06;101289.84;;;12.64;100.00
48846;BME280;34665;51.886;5.436;2023-04-07T01:34:34;101296.16;;;12.84;100.00
48846;BME280;34665;51.886;5.436;2023-04-07T01:37:01;101299.91;;;12.97;100.00
48846;BME280;34665;51.886;5.436;2023-04-07T01:39:27;101302.56;;;12.90;100.00
48846;BME280;34665;51.886;5.436;2023-04-07T01:41:53;101302.41;;;12.98;100.00
48846;BME280;34665;51.886;5.436;2023-04-07T01:44:19;101305.38;;;12.75;100.00
48846;BME280;34665;51.886;5.436;2023-04-07T01:46:45;101312.03;;;12.86;100.00
48846;BME280;34665;51.886;5.436;2023-04-07T01:49:11;101311.66;;;12.54;100.00
48846;BME280;34665;51.886;5.436;2023-04-07T01:51:37;101310.59;;;12.90;100.00
48846;BME280;34665;51.886;5.436;2023-04-07T01:54:04;101315.59;;;12.93;100.00
48846;BME280;34665;51.886;5.436;2023-04-07T01:56:29;101313.69;;;12.87;100.00
48846;BME280;34665;51.886;5.436;2023-04-07T01:58:56;101318.75;;;12.68;100.00
48846;BME280;34665;51.886;5.436;2023-04-07T02:01:23;101307.31;;;12.53;100.00
48846;BME280;34665;51.886;5.436;2023-04-07T02:04:01;101312.81;;;13.22;100.00
48846;BME280;34665;51.886;5.436;2023-04-07T02:06:38;101314.84;;;13.13;100.00
48846;BME280;34665;51.886;5.436;2023-04-07T02:09:05;101316.44;;;13.00;100.00
48846;BME280;34665;51.886;5.436;2023-04-07T02:11:32;101311.63;;;12.89;100.00
48846;BME280;34665;51.886;5.436;2023-04-07T02:14:01;101313.19;;;13.05;100.00
48846;BME280;34665;51.886;5.436;2023-04-07T02:16:33;101315.22;;;13.10;100.00
48846;BME280;34665;51.886;5.436;2023-04-07T02:19:00;101312.63;;;13.23;100.00
48846;BME280;34665;51.886;5.436;2023-04-07T02:21:27;101317.25;;;12.94;100.00
48846;BME280;34665;51.886;5.436;2023-04-07T02:23:55;101324.28;;;13.02;100.00
48846;BME280;34665;51.886;5.436;2023-04-07T02:26:20;101313.84;;;13.27;100.00
48846;BME280;34665;51.886;5.436;2023-04-07T02:28:47;101316.13;;;13.30;100.00
48846;BME280;34665;51.886;5.436;2023-04-07T02:31:15;101317.88;;;13.45;100.00
48846;BME280;34665;51.886;5.436;2023-04-07T02:33:41;101323.13;;;13.25;100.00
48846;BME280;34665;51.886;5.436;2023-04-07T02:36:06;101313.28;;;13.39;100.00
48846;BME280;34665;51.886;5.436;2023-04-07T02:38:31;101316.97;;;13.38;100.00
48846;BME280;34665;51.886;5.436;2023-04-07T02:40:57;101316.16;;;13.37;100.00
48846;BME280;34665;51.886;5.436;2023-04-07T02:43:23;101316.13;;;13.30;100.00
48846;BME280;34665;51.886;5.436;2023-04-07T02:45:50;101321.72;;;13.29;100.00
48846;BME280;34665;51.886;5.436;2023-04-07T02:48:15;101315.72;;;13.33;100.00
48846;BME280;34665;51.886;5.436;2023-04-07T02:50:41;101320.19;;;13.06;100.00
48846;BME280;34665;51.886;5.436;2023-04-07T02:53:08;101323.56;;;13.28;100.00
48846;BME280;34665;51.886;5.436;2023-04-07T02:55:33;101323.13;;;13.18;100.00
48846;BME280;34665;51.886;5.436;2023-04-07T02:57:58;101325.19;;;13.16;100.00
48846;BME280;34665;51.886;5.436;2023-04-07T03:00:44;101321.50;;;13.30;100.00
48846;BME280;34665;51.886;5.436;2023-04-07T03:03:14;101321.06;;;13.20;100.00
48846;BME280;34665;51.886;5.436;2023-04-07T03:05:44;101322.34;;;13.38;100.00
48846;BME280;34665;51.886;5.436;2023-04-07T03:08:10;101316.72;;;13.26;100.00
48846;BME280;34665;51.886;5.436;2023-04-07T03:10:36;101325.81;;;13.18;100.00
48846;BME280;34665;51.886;5.436;2023-04-07T03:13:02;101319.66;;;13.31;100.00
48846;BME280;34665;51.886;5.436;2023-04-07T03:15:28;101321.00;;;13.07;100.00
48846;BME280;34665;51.886;5.436;2023-04-07T03:17:54;101327.28;;;13.27;100.00
48846;BME280;34665;51.886;5.436;2023-04-07T03:20:19;101326.06;;;13.37;100.00
48846;BME280;34665;51.886;5.436;2023-04-07T03:22:45;101321.00;;;13.07;100.00
48846;BME280;34665;51.886;5.436;2023-04-07T03:25:18;101321.22;;;13.12;100.00
48846;BME280;34665;51.886;5.436;2023-04-07T03:27:44;101321.63;;;13.09;100.00
48846;BME280;34665;51.886;5.436;2023-04-07T03:30:12;101319.63;;;13.24;100.00
48846;BME280;34665;51.886;5.436;2023-04-07T03:32:37;101326.63;;;12.70;100.00
48846;BME280;34665;51.886;5.436;2023-04-07T03:35:03;101327.09;;;12.87;100.00
48846;BME280;34665;51.886;5.436;2023-04-07T03:37:29;101326.78;;;13.03;100.00
48846;BME280;34665;51.886;5.436;2023-04-07T03:39:54;101327.63;;;13.11;100.00
48846;BME280;34665;51.886;5.436;2023-04-07T03:42:25;101328.44;;;13.04;100.00
48846;BME280;34665;51.886;5.436;2023-04-07T03:44:57;101324.78;;;13.19;100.00
48846;BME280;34665;51.886;5.436;2023-04-07T03:47:22;101318.13;;;13.08;100.00
48846;BME280;34665;51.886;5.436;2023-04-07T03:49:54;101324.09;;;13.03;100.00
48846;BME280;34665;51.886;5.436;2023-04-07T03:52:20;101320.00;;;13.14;100.00
48846;BME280;34665;51.886;5.436;2023-04-07T03:54:49;101326.03;;;13.23;100.00
48846;BME280;34665;51.886;5.436;2023-04-07T03:57:17;101326.06;;;13.30;100.00
48846;BME280;34665;51.886;5.436;2023-04-07T03:59:46;101325.22;;;13.29;100.00
48846;BME280;34665;51.886;5.436;2023-04-07T04:02:16;101329.56;;;13.30;100.00
48846;BME280;34665;51.886;5.436;2023-04-07T04:04:42;101329.75;;;13.22;100.00
48846;BME280;34665;51.886;5.436;2023-04-07T04:07:09;101328.09;;;13.21;100.00
48846;BME280;34665;51.886;5.436;2023-04-07T04:09:42;101334.47;;;13.13;100.00
48846;BME280;34665;51.886;5.436;2023-04-07T04:12:08;101337.16;;;13.13;100.00
48846;BME280;34665;51.886;5.436;2023-04-07T04:14:40;101332.78;;;13.05;100.00
48846;BME280;34665;51.886;5.436;2023-04-07T04:17:07;101328.25;;;13.06;100.00
48846;BME280;34665;51.886;5.436;2023-04-07T04:19:39;101337.06;;;12.93;100.00
48846;BME280;34665;51.886;5.436;2023-04-07T04:22:12;101341.63;;;12.99;100.00
48846;BME280;34665;51.886;5.436;2023-04-07T04:24:47;101335.06;;;13.09;100.00
48846;BME280;34665;51.886;5.436;2023-04-07T04:27:12;101340.78;;;12.92;100.00
48846;BME280;34665;51.886;5.436;2023-04-07T04:29:38;101341.50;;;12.72;100.00
48846;BME280;34665;51.886;5.436;2023-04-07T04:32:07;101349.69;;;12.64;100.00
48846;BME280;34665;51.886;5.436;2023-04-07T04:34:33;101349.63;;;12.51;100.00
48846;BME280;34665;51.886;5.436;2023-04-07T04:36:58;101356.50;;;12.95;100.00
48846;BME280;34665;51.886;5.436;2023-04-07T04:39:25;101350.75;;;13.05;100.00
48846;BME280;34665;51.886;5.436;2023-04-07T04:41:50;101354.53;;;12.75;100.00
48846;BME280;34665;51.886;5.436;2023-04-07T04:44:16;101360.22;;;13.01;100.00
48846;BME280;34665;51.886;5.436;2023-04-07T04:46:43;101361.50;;;13.05;100.00
48846;BME280;34665;51.886;5.436;2023-04-07T04:49:08;101362.41;;;12.84;100.00
48846;BME280;34665;51.886;5.436;2023-04-07T04:51:34;101365.25;;;12.75;100.00
48846;BME280;34665;51.886;5.436;2023-04-07T04:54:08;101372.59;;;12.95;100.00
48846;BME280;34665;51.886;5.436;2023-04-07T04:56:36;101374.97;;;12.76;100.00
48846;BME280;34665;51.886;5.436;2023-04-07T04:59:03;101368.91;;;13.03;100.00
48846;BME280;34665;51.886;5.436;2023-04-07T05:01:40;101377.84;;;13.10;100.00
48846;BME280;34665;51.886;5.436;2023-04-07T05:04:08;101373.19;;;12.90;100.00
48846;BME280;34665;51.886;5.436;2023-04-07T05:06:35;101371.81;;;13.01;100.00
48846;BME280;34665;51.886;5.436;2023-04-07T05:09:06;101369.19;;;13.22;100.00
48846;BME280;34665;51.886;5.436;2023-04-07T05:11:40;101374.00;;;13.33;100.00
48846;BME280;34665;51.886;5.436;2023-04-07T05:14:05;101375.25;;;13.37;100.00
48846;BME280;34665;51.886;5.436;2023-04-07T05:16:30;101375.59;;;13.20;100.00
48846;BME280;34665;51.886;5.436;2023-04-07T05:18:56;101378.47;;;13.12;100.00
48846;BME280;34665;51.886;5.436;2023-04-07T05:21:23;101373.47;;;13.02;100.00
48846;BME280;34665;51.886;5.436;2023-04-07T05:23:51;101384.31;;;13.29;100.00
48846;BME280;34665;51.886;5.436;2023-04-07T05:26:19;101382.13;;;13.04;100.00
48846;BME280;34665;51.886;5.436;2023-04-07T05:28:47;101385.25;;;13.08;100.00
48846;BME280;34665;51.886;5.436;2023-04-07T05:31:17;101383.88;;;13.19;100.00
48846;BME280;34665;51.886;5.436;2023-04-07T05:33:45;101385.34;;;13.28;100.00
48846;BME280;34665;51.886;5.436;2023-04-07T05:36:10;101387.44;;;13.33;100.00
48846;BME280;34665;51.886;5.436;2023-04-07T05:38:38;101388.13;;;13.07;100.00
48846;BME280;34665;51.886;5.436;2023-04-07T05:41:10;101388.03;;;12.58;100.00
48846;BME280;34665;51.886;5.436;2023-04-07T05:43:37;101387.41;;;12.91;100.00
48846;BME280;34665;51.886;5.436;2023-04-07T05:46:03;101395.78;;;13.10;100.00
48846;BME280;34665;51.886;5.436;2023-04-07T05:48:30;101391.03;;;13.05;100.00
48846;BME280;34665;51.886;5.436;2023-04-07T05:50:56;101394.75;;;13.11;100.00
48846;BME280;34665;51.886;5.436;2023-04-07T05:53:22;101391.84;;;13.05;100.00
48846;BME280;34665;51.886;5.436;2023-04-07T05:55:47;101389.75;;;12.66;100.00
48846;BME280;34665;51.886;5.436;2023-04-07T05:58:22;101391.53;;;12.87;100.00
48846;BME280;34665;51.886;5.436;2023-04-07T06:00:51;101392.88;;;13.04;100.00
48846;BME280;34665;51.886;5.436;2023-04-07T06:03:17;101400.75;;;13.06;100.00
48846;BME280;34665;51.886;5.436;2023-04-07T06:06:07;101404.38;;;12.91;100.00
48846;BME280;34665;51.886;5.436;2023-04-07T06:08:33;101410.53;;;12.85;100.00
48846;BME280;34665;51.886;5.436;2023-04-07T06:10:59;101410.81;;;12.97;100.00
48846;BME280;34665;51.886;5.436;2023-04-07T06:13:26;101407.78;;;13.07;100.00
48846;BME280;34665;51.886;5.436;2023-04-07T06:15:53;101406.50;;;13.03;100.00
48846;BME280;34665;51.886;5.436;2023-04-07T06:18:19;101408.13;;;12.97;100.00
48846;BME280;34665;51.886;5.436;2023-04-07T06:20:45;101408.81;;;13.06;100.00
48846;BME280;34665;51.886;5.436;2023-04-07T06:23:10;101415.69;;;13.22;100.00
48846;BME280;34665;51.886;5.436;2023-04-07T06:25:35;101411.28;;;13.08;100.00
48846;BME280;34665;51.886;5.436;2023-04-07T06:28:00;101414.50;;;13.31;100.00
48846;BME280;34665;51.886;5.436;2023-04-07T06:30:26;101412.03;;;13.37;100.00
48846;BME280;34665;51.886;5.436;2023-04-07T06:32:52;101421.44;;;13.54;100.00
48846;BME280;34665;51.886;5.436;2023-04-07T06:35:17;101419.06;;;13.38;100.00
48846;BME280;34665;51.886;5.436;2023-04-07T06:37:42;101417.94;;;13.60;100.00
48846;BME280;34665;51.886;5.436;2023-04-07T06:40:08;101419.47;;;13.76;100.00
48846;BME280;34665;51.886;5.436;2023-04-07T06:42:33;101423.34;;;13.67;100.00
48846;BME280;34665;51.886;5.436;2023-04-07T06:45:14;101427.53;;;13.90;100.00
48846;BME280;34665;51.886;5.436;2023-04-07T06:47:40;101435.38;;;13.78;100.00
48846;BME280;34665;51.886;5.436;2023-04-07T06:50:05;101439.53;;;13.94;100.00
48846;BME280;34665;51.886;5.436;2023-04-07T06:52:31;101437.16;;;13.57;100.00
48846;BME280;34665;51.886;5.436;2023-04-07T06:54:56;101445.34;;;13.84;100.00
48846;BME280;34665;51.886;5.436;2023-04-07T06:57:21;101450.97;;;13.96;100.00
48846;BME280;34665;51.886;5.436;2023-04-07T06:59:46;101445.56;;;14.03;100.00
48846;BME280;34665;51.886;5.436;2023-04-07T07:02:12;101447.47;;;14.09;100.00
48846;BME280;34665;51.886;5.436;2023-04-07T07:04:37;101457.75;;;13.85;100.00
48846;BME280;34665;51.886;5.436;2023-04-07T07:07:03;101457.16;;;14.03;100.00
48846;BME280;34665;51.886;5.436;2023-04-07T07:09:28;101451.16;;;13.95;100.00
48846;BME280;34665;51.886;5.436;2023-04-07T07:11:54;101457.34;;;13.95;100.00
48846;BME280;34665;51.886;5.436;2023-04-07T07:14:20;101459.44;;;14.00;100.00
48846;BME280;34665;51.886;5.436;2023-04-07T07:16:45;101469.78;;;14.03;100.00
48846;BME280;34665;51.886;5.436;2023-04-07T07:19:11;101463.03;;;14.34;100.00
48846;BME280;34665;51.886;5.436;2023-04-07T07:21:36;101469.03;;;14.36;100.00
48846;BME280;34665;51.886;5.436;2023-04-07T07:24:02;101469.41;;;14.40;100.00
48846;BME280;34665;51.886;5.436;2023-04-07T07:26:28;101466.91;;;14.25;100.00
48846;BME280;34665;51.886;5.436;2023-04-07T07:28:53;101474.13;;;13.97;100.00
48846;BME280;34665;51.886;5.436;2023-04-07T07:31:18;101468.53;;;14.05;100.00
48846;BME280;34665;51.886;5.436;2023-04-07T07:33:44;101470.88;;;14.36;100.00
48846;BME280;34665;51.886;5.436;2023-04-07T07:36:10;101477.44;;;14.13;100.00
48846;BME280;34665;51.886;5.436;2023-04-07T07:38:36;101473.78;;;14.34;100.00
48846;BME280;34665;51.886;5.436;2023-04-07T07:41:02;101481.84;;;14.34;100.00
48846;BME280;34665;51.886;5.436;2023-04-07T07:43:27;101482.47;;;14.49;100.00
48846;BME280;34665;51.886;5.436;2023-04-07T07:45:53;101479.59;;;14.71;100.00
48846;BME280;34665;51.886;5.436;2023-04-07T07:48:18;101485.44;;;14.82;100.00
48846;BME280;34665;51.886;5.436;2023-04-07T07:50:44;101484.53;;;14.27;100.00
48846;BME280;34665;51.886;5.436;2023-04-07T07:53:09;101492.63;;;14.61;100.00
48846;BME280;34665;51.886;5.436;2023-04-07T07:55:35;101490.16;;;14.66;100.00
48846;BME280;34665;51.886;5.436;2023-04-07T07:58:00;101494.28;;;14.62;100.00
48846;BME280;34665;51.886;5.436;2023-04-07T08:00:25;101493.25;;;14.63;100.00
48846;BME280;34665;51.886;5.436;2023-04-07T08:02:51;101497.19;;;14.54;100.00
48846;BME280;34665;51.886;5.436;2023-04-07T08:05:16;101501.75;;;14.67;100.00
48846;BME280;34665;51.886;5.436;2023-04-07T08:07:41;101506.91;;;14.41;100.00
48846;BME280;34665;51.886;5.436;2023-04-07T08:10:07;101505.69;;;14.84;100.00
48846;BME280;34665;51.886;5.436;2023-04-07T08:12:32;101514.19;;;14.81;100.00
48846;BME280;34665;51.886;5.436;2023-04-07T08:14:58;101511.25;;;14.62;100.00
48846;BME280;34665;51.886;5.436;2023-04-07T08:17:23;101517.91;;;14.60;100.00
48846;BME280;34665;51.886;5.436;2023-04-07T08:19:49;101512.69;;;14.52;100.00
48846;BME280;34665;51.886;5.436;2023-04-07T08:22:14;101513.66;;;14.10;100.00
48846;BME280;34665;51.886;5.436;2023-04-07T08:24:40;101517.22;;;14.24;100.00
48846;BME280;34665;51.886;5.436;2023-04-07T08:27:05;101520.16;;;14.36;100.00
48846;BME280;34665;51.886;5.436;2023-04-07T08:29:30;101517.78;;;13.99;100.00
48846;BME280;34665;51.886;5.436;2023-04-07T08:31:56;101527.81;;;14.39;100.00
48846;BME280;34665;51.886;5.436;2023-04-07T08:34:21;101525.13;;;14.39;100.00
48846;BME280;34665;51.886;5.436;2023-04-07T08:36:47;101518.09;;;14.45;100.00
48846;BME280;34665;51.886;5.436;2023-04-07T08:39:12;101525.38;;;14.71;100.00
48846;BME280;34665;51.886;5.436;2023-04-07T08:41:39;101528.69;;;14.80;100.00
48846;BME280;34665;51.886;5.436;2023-04-07T08:44:05;101527.44;;;15.10;100.00
48846;BME280;34665;51.886;5.436;2023-04-07T08:46:31;101530.38;;;14.95;100.00
48846;BME280;34665;51.886;5.436;2023-04-07T08:48:57;101522.09;;;14.83;100.00
48846;BME280;34665;51.886;5.436;2023-04-07T08:51:26;101543.56;;;14.56;100.00
48846;BME280;34665;51.886;5.436;2023-04-07T08:53:52;101542.47;;;14.23;100.00
48846;BME280;34665;51.886;5.436;2023-04-07T08:56:19;101535.72;;;14.68;100.00
48846;BME280;34665;51.886;5.436;2023-04-07T08:58:46;101545.28;;;14.84;100.00
48846;BME280;34665;51.886;5.436;2023-04-07T09:01:11;101545.69;;;15.14;100.00
48846;BME280;34665;51.886;5.436;2023-04-07T09:03:38;101546.88;;;14.58;100.00
48846;BME280;34665;51.886;5.436;2023-04-07T09:06:03;101544.41;;;14.70;100.00
48846;BME280;34665;51.886;5.436;2023-04-07T09:08:29;101553.16;;;14.92;100.00
48846;BME280;34665;51.886;5.436;2023-04-07T09:10:55;101549.41;;;14.86;100.00
48846;BME280;34665;51.886;5.436;2023-04-07T09:13:21;101548.56;;;14.66;100.00
48846;BME280;34665;51.886;5.436;2023-04-07T09:15:46;101550.44;;;14.85;100.00
48846;BME280;34665;51.886;5.436;2023-04-07T09:18:11;101554.09;;;14.37;100.00
48846;BME280;34665;51.886;5.436;2023-04-07T09:20:53;101554.97;;;14.58;100.00
48846;BME280;34665;51.886;5.436;2023-04-07T09:23:29;101562.75;;;14.32;100.00
48846;BME280;34665;51.886;5.436;2023-04-07T09:25:55;101560.72;;;14.41;100.00
48846;BME280;34665;51.886;5.436;2023-04-07T09:28:24;101559.97;;;14.74;100.00
48846;BME280;34665;51.886;5.436;2023-04-07T09:30:52;101568.69;;;14.97;100.00
48846;BME280;34665;51.886;5.436;2023-04-07T09:33:28;101568.06;;;14.88;100.00
48846;BME280;34665;51.886;5.436;2023-04-07T09:35:54;101566.59;;;14.85;100.00
48846;BME280;34665;51.886;5.436;2023-04-07T09:38:20;101564.34;;;14.89;100.00
48846;BME280;34665;51.886;5.436;2023-04-07T09:40:45;101564.06;;;14.57;100.00
48846;BME280;34665;51.886;5.436;2023-04-07T09:43:19;101564.91;;;14.64;100.00
48846;BME280;34665;51.886;5.436;2023-04-07T09:45:44;101567.66;;;15.04;100.00
48846;BME280;34665;51.886;5.436;2023-04-07T09:48:19;101569.31;;;15.05;100.00
48846;BME280;34665;51.886;5.436;2023-04-07T09:50:45;101570.56;;;14.83;100.00
48846;BME280;34665;51.886;5.436;2023-04-07T09:53:13;101571.94;;;14.65;100.00
48846;BME280;34665;51.886;5.436;2023-04-07T09:55:39;101573.19;;;14.56;100.00
48846;BME280;34665;51.886;5.436;2023-04-07T09:58:05;101578.41;;;14.91;100.00
48846;BME280;34665;51.886;5.436;2023-04-07T10:00:31;101579.25;;;15.12;100.00
48846;BME280;34665;51.886;5.436;2023-04-07T10:02:57;101577.50;;;15.65;100.00
48846;BME280;34665;51.886;5.436;2023-04-07T10:05:22;101572.19;;;15.38;100.00
48846;BME280;34665;51.886;5.436;2023-04-07T10:07:49;101581.22;;;15.77;100.00
48846;BME280;34665;51.886;5.436;2023-04-07T10:10:14;101587.94;;;16.20;100.00
48846;BME280;34665;51.886;5.436;2023-04-07T10:12:41;101584.63;;;15.05;100.00
48846;BME280;34665;51.886;5.436;2023-04-07T10:15:06;101583.00;;;15.24;100.00
48846;BME280;34665;51.886;5.436;2023-04-07T10:17:33;101590.56;;;15.68;100.00
48846;BME280;34665;51.886;5.436;2023-04-07T10:20:00;101592.13;;;15.23;100.00
48846;BME280;34665;51.886;5.436;2023-04-07T10:22:26;101593.13;;;15.49;100.00
48846;BME280;34665;51.886;5.436;2023-04-07T10:24:56;101600.56;;;15.60;100.00
48846;BME280;34665;51.886;5.436;2023-04-07T10:27:28;101599.97;;;15.04;100.00
48846;BME280;34665;51.886;5.436;2023-04-07T10:29:55;101603.72;;;15.30;100.00
48846;BME280;34665;51.886;5.436;2023-04-07T10:32:22;101604.91;;;15.61;100.00
48846;BME280;34665;51.886;5.436;2023-04-07T10:37:19;101608.03;;;15.52;100.00
48846;BME280;34665;51.886;5.436;2023-04-07T10:39:48;101605.94;;;15.60;100.00
48846;BME280;34665;51.886;5.436;2023-04-07T10:44:59;101612.41;;;14.99;100.00
48846;BME280;34665;51.886;5.436;2023-04-07T10:47:25;101608.25;;;15.03;100.00
48846;BME280;34665;51.886;5.436;2023-04-07T10:52:35;101623.16;;;15.53;100.00
48846;BME280;34665;51.886;5.436;2023-04-07T11:00:31;101623.16;;;15.59;100.00
48846;BME280;34665;51.886;5.436;2023-04-07T11:02:56;101625.19;;;15.84;100.00
48846;BME280;34665;51.886;5.436;2023-04-07T11:05:22;101618.81;;;15.18;100.00
48846;BME280;34665;51.886;5.436;2023-04-07T11:07:49;101620.88;;;15.49;100.00
48846;BME280;34665;51.886;5.436;2023-04-07T11:10:14;101627.75;;;15.39;100.00
48846;BME280;34665;51.886;5.436;2023-04-07T11:12:41;101631.06;;;15.61;100.00
48846;BME280;34665;51.886;5.436;2023-04-07T11:15:17;101628.16;;;15.22;100.00
48846;BME280;34665;51.886;5.436;2023-04-07T11:17:43;101625.88;;;15.32;100.00
48846;BME280;34665;51.886;5.436;2023-04-07T11:20:09;101625.84;;;14.92;100.00
48846;BME280;34665;51.886;5.436;2023-04-07T11:22:34;101628.16;;;15.42;100.00
48846;BME280;34665;51.886;5.436;2023-04-07T11:25:01;101630.22;;;15.33;100.00
48846;BME280;34665;51.886;5.436;2023-04-07T11:27:27;101638.53;;;15.12;100.00
48846;BME280;34665;51.886;5.436;2023-04-07T11:29:53;101632.50;;;14.96;100.00
48846;BME280;34665;51.886;5.436;2023-04-07T11:32:21;101634.78;;;15.13;100.00
48846;BME280;34665;51.886;5.436;2023-04-07T11:34:49;101631.50;;;15.24;100.00
48846;BME280;34665;51.886;5.436;2023-04-07T11:37:18;101634.78;;;14.99;100.00
48846;BME280;34665;51.886;5.436;2023-04-07T11:39:43;101638.94;;;15.15;100.00
48846;BME280;34665;51.886;5.436;2023-04-07T11:42:11;101634.19;;;15.24;100.00
48846;BME280;34665;51.886;5.436;2023-04-07T11:44:44;101639.13;;;15.14;100.00
48846;BME280;34665;51.886;5.436;2023-04-07T11:47:10;101634.81;;;15.19;100.00
48846;BME280;34665;51.886;5.436;2023-04-07T11:49:35;101632.94;;;15.40;100.00
48846;BME280;34665;51.886;5.436;2023-04-07T11:52:08;101637.50;;;15.19;100.00
48846;BME280;34665;51.886;5.436;2023-04-07T11:54:43;101640.16;;;14.86;100.00
48846;BME280;34665;51.886;5.436;2023-04-07T11:57:11;101638.13;;;14.39;100.00
48846;BME280;34665;51.886;5.436;2023-04-07T11:59:36;101643.78;;;14.65;100.00
48846;BME280;34665;51.886;5.436;2023-04-07T12:02:02;101642.84;;;15.06;100.00
48846;BME280;34665;51.886;5.436;2023-04-07T12:04:28;101657.41;;;15.25;100.00
48846;BME280;34665;51.886;5.436;2023-04-07T12:06:53;101656.75;;;15.30;100.00
48846;BME280;34665;51.886;5.436;2023-04-07T12:11:51;101668.19;;;15.25;100.00
48846;BME280;34665;51.886;5.436;2023-04-07T12:14:16;101665.88;;;15.09;100.00
48846;BME280;34665;51.886;5.436;2023-04-07T12:16:42;101666.94;;;15.14;100.00
48846;BME280;34665;51.886;5.436;2023-04-07T12:19:07;101666.53;;;15.24;100.00
48846;BME280;34665;51.886;5.436;2023-04-07T12:21:32;101671.28;;;15.29;100.00
48846;BME280;34665;51.886;5.436;2023-04-07T12:23:58;101668.78;;;15.20;100.00
48846;BME280;34665;51.886;5.436;2023-04-07T12:26:23;101671.50;;;15.34;100.00
48846;BME280;34665;51.886;5.436;2023-04-07T12:28:49;101672.09;;;15.02;100.00
48846;BME280;34665;51.886;5.436;2023-04-07T12:31:15;101682.91;;;15.29;100.00
48846;BME280;34665;51.886;5.436;2023-04-07T12:33:41;101680.81;;;15.45;100.00
48846;BME280;34665;51.886;5.436;2023-04-07T12:36:06;101682.47;;;15.39;100.00
48846;BME280;34665;51.886;5.436;2023-04-07T12:38:32;101672.72;;;15.31;100.00
48846;BME280;34665;51.886;5.436;2023-04-07T12:40:57;101678.28;;;14.96;100.00
48846;BME280;34665;51.886;5.436;2023-04-07T12:43:27;101684.13;;;15.27;100.00
48846;BME280;34665;51.886;5.436;2023-04-07T12:45:53;101686.22;;;15.58;100.00
48846;BME280;34665;51.886;5.436;2023-04-07T12:48:18;101694.69;;;15.22;100.00
48846;BME280;34665;51.886;5.436;2023-04-07T12:50:43;101686.00;;;15.19;100.00
48846;BME280;34665;51.886;5.436;2023-04-07T12:53:09;101690.75;;;15.38;100.00
48846;BME280;34665;51.886;5.436;2023-04-07T12:55:34;101687.84;;;15.05;100.00
48846;BME280;34665;51.886;5.436;2023-04-07T12:58:01;101688.47;;;15.08;100.00
48846;BME280;34665;51.886;5.436;2023-04-07T13:00:26;101693.25;;;15.73;100.00